Time;durP1;ratioP1;P1;durP2;ratioP2;P2;SDS_P1;SDS_P2;PMS_P1;PMS_P2;Temp;Humidity;BMP_temperature;BMP_pressure;BME280_temperature;BME280_humidity;BME280_pressure;Samples;Min_cycle;Max_cycle;Signal;HPM_P1;HPM_P2
2021/09/30 00:00:01;;;;;;;4.80;2.93;;;;;;;;;;5013115;28;20487;-45
2021/09/30 00:02:27;;;;;;;2.27;2.00;;;;;;;;;;5012777;28;20786;-45
2021/09/30 00:04:53;;;;;;;6.70;2.90;;;;;;;;;;5013269;28;20408;-46
2021/09/30 00:07:19;;;;;;;5.80;2.67;;;;;;;;;;5013061;28;20409;-47
2021/09/30 00:09:46;;;;;;;4.87;2.47;;;;;;;;;;5013052;28;20408;-48
2021/09/30 00:12:16;;;;;;;4.80;2.53;;;;;;;;;;5012575;28;20992;-46
2021/09/30 00:15:00;;;;;;;7.60;2.80;;;;;;;;;;5023484;28;20925;-45
2021/09/30 00:47:48;;;;;;;5.63;3.33;;;;;;;;;;5012463;28;20400;-45
2021/09/30 00:50:33;;;;;;;6.20;3.30;;;;;;;;;;5012346;28;20391;-45
2021/09/30 00:53:34;;;;;;;5.60;3.63;;;;;;;;;;5011998;28;20412;-45
2021/09/30 01:18:06;;;;;;;5.73;3.53;;;;;;;;;;5012154;28;20538;-45
2021/09/30 01:52:04;;;;;;;10.67;3.40;;;;;;;;;;5015755;28;20468;-45
2021/09/30 02:20:31;;;;;;;5.40;3.53;;;;;;;;;;5014032;28;20443;-44
2021/09/30 02:23:30;;;;;;;3.50;3.00;;;;;;;;;;5022259;28;20443;-45
2021/09/30 02:26:29;;;;;;;6.80;3.40;;;;;;;;;;5033425;28;20424;-45
2021/09/30 02:59:21;;;;;;;7.40;3.97;;;;;;;;;;5013251;28;20427;-45
2021/09/30 03:01:47;;;;;;;9.77;4.63;;;;;;;;;;5012916;28;20814;-47
2021/09/30 03:04:16;;;;;;;5.77;3.60;;;;;;;;;;5013115;28;20421;-45
2021/09/30 03:06:42;;;;;;;5.63;4.20;;;;;;;;;;5013169;28;20394;-44
2021/09/30 03:09:10;;;;;;;6.03;4.20;;;;;;;;;;5013094;28;20398;-45
2021/09/30 03:11:40;;;;;;;4.20;3.70;;;;;;;;;;5013025;28;20437;-45
2021/09/30 03:14:07;;;;;;;5.20;4.60;;;;;;;;;;5018308;28;20527;-46
2021/09/30 03:16:43;;;;;;;7.87;3.60;;;;;;;;;;4997417;28;1045050;-48
2021/09/30 03:19:32;;;;;;;5.10;4.20;;;;;;;;;;5033710;28;20463;-45
2021/09/30 03:24:37;;;;;;;6.87;3.73;;;;;;;;;;5033934;28;20898;-45
2021/09/30 03:27:03;;;;;;;9.57;3.97;;;;;;;;;;5033611;28;20400;-45
2021/09/30 03:29:29;;;;;;;3.53;3.23;;;;;;;;;;5033522;28;20416;-44
2021/09/30 03:31:56;;;;;;;11.90;4.23;;;;;;;;;;5033274;28;20768;-45
2021/09/30 03:34:22;;;;;;;4.83;3.67;;;;;;;;;;5033213;28;21004;-46
2021/09/30 03:36:48;;;;;;;8.47;3.93;;;;;;;;;;5033233;28;20438;-45
2021/09/30 03:39:16;;;;;;;7.97;4.30;;;;;;;;;;5033359;28;20806;-45
2021/09/30 03:41:42;;;;;;;11.90;3.67;;;;;;;;;;5033159;28;20764;-48
2021/09/30 03:44:09;;;;;;;7.30;3.60;;;;;;;;;;5031065;28;20440;-48
2021/09/30 03:46:35;;;;;;;14.13;3.37;;;;;;;;;;5033256;28;20435;-48
2021/09/30 03:49:08;;;;;;;6.20;4.10;;;;;;;;;;5032369;28;20969;-48
2021/09/30 03:59:25;;;;;;;10.70;3.87;;;;;;;;;;5033081;28;20524;-48
2021/09/30 04:01:56;;;;;;;6.30;3.90;;;;;;;;;;5032576;28;20411;-48
2021/09/30 04:04:25;;;;;;;5.50;3.93;;;;;;;;;;5032861;28;20411;-49
2021/09/30 04:06:53;;;;;;;4.23;3.83;;;;;;;;;;5032778;28;20414;-48
2021/09/30 04:09:20;;;;;;;5.10;3.60;;;;;;;;;;5033078;28;20955;-48
2021/09/30 04:11:46;;;;;;;6.13;4.33;;;;;;;;;;5031608;28;20417;-48
2021/09/30 04:14:12;;;;;;;7.37;4.00;;;;;;;;;;5032625;28;20793;-48
2021/09/30 04:16:44;;;;;;;7.57;3.87;;;;;;;;;;5032567;28;20420;-47
2021/09/30 04:19:12;;;;;;;6.77;3.70;;;;;;;;;;5032614;28;20493;-49
2021/09/30 04:21:38;;;;;;;6.13;3.50;;;;;;;;;;5032442;28;20400;-45
2021/09/30 04:24:05;;;;;;;5.37;3.43;;;;;;;;;;5032354;28;20764;-49
2021/09/30 04:26:31;;;;;;;6.67;3.90;;;;;;;;;;5032514;28;20408;-48
2021/09/30 04:28:57;;;;;;;5.50;4.07;;;;;;;;;;5032694;28;20394;-48
2021/09/30 04:31:24;;;;;;;7.87;3.70;;;;;;;;;;5032308;28;20408;-48
2021/09/30 04:33:51;;;;;;;5.40;4.03;;;;;;;;;;5032093;28;20423;-48
2021/09/30 04:36:17;;;;;;;11.50;4.30;;;;;;;;;;5032258;28;20407;-48
2021/09/30 04:38:45;;;;;;;7.03;4.17;;;;;;;;;;5032208;28;20970;-48
2021/09/30 04:41:13;;;;;;;13.27;4.23;;;;;;;;;;5023710;28;20857;-48
2021/09/30 04:44:10;;;;;;;7.27;3.93;;;;;;;;;;5011876;28;20480;-49
2021/09/30 04:46:36;;;;;;;9.60;4.07;;;;;;;;;;5012436;28;20887;-48
2021/09/30 04:49:02;;;;;;;4.37;3.97;;;;;;;;;;5012405;28;20409;-49
2021/09/30 04:51:28;;;;;;;3.97;3.47;;;;;;;;;;5012286;28;20400;-48
2021/09/30 04:53:54;;;;;;;6.17;3.40;;;;;;;;;;5011079;28;20447;-48
2021/09/30 04:56:21;;;;;;;10.03;4.03;;;;;;;;;;5012331;28;20401;-47
2021/09/30 04:58:47;;;;;;;12.67;4.30;;;;;;;;;;5012016;28;20467;-48
2021/09/30 05:01:13;;;;;;;11.10;4.60;;;;;;;;;;5012235;28;20407;-48
2021/09/30 05:03:39;;;;;;;6.13;3.80;;;;;;;;;;5011936;28;20910;-48
2021/09/30 05:06:05;;;;;;;14.57;4.23;;;;;;;;;;5012252;28;20408;-48
2021/09/30 05:08:34;;;;;;;4.53;3.47;;;;;;;;;;5012833;28;20409;-48
2021/09/30 05:11:00;;;;;;;7.13;3.95;;;;;;;;;;5011781;28;20415;-49
2021/09/30 05:13:36;;;;;;;11.37;4.30;;;;;;;;;;5030852;28;20216;-49
2021/09/30 05:16:02;;;;;;;10.37;3.83;;;;;;;;;;5030970;28;20458;-48
2021/09/30 05:18:28;;;;;;;5.70;4.20;;;;;;;;;;5031565;28;20467;-49
2021/09/30 05:20:54;;;;;;;6.50;3.70;;;;;;;;;;5031675;28;20399;-48
2021/09/30 05:23:21;;;;;;;9.63;3.70;;;;;;;;;;5030607;28;20455;-49
2021/09/30 05:25:47;;;;;;;6.93;4.07;;;;;;;;;;5019687;28;20424;-48
2021/09/30 05:28:13;;;;;;;6.53;3.93;;;;;;;;;;5011225;28;20768;-49
2021/09/30 05:30:39;;;;;;;10.60;4.50;;;;;;;;;;5024655;28;20442;-49
2021/09/30 05:33:05;;;;;;;7.13;4.40;;;;;;;;;;5030477;28;20811;-49
2021/09/30 05:35:31;;;;;;;13.17;4.37;;;;;;;;;;5031760;28;20407;-48
2021/09/30 05:37:57;;;;;;;6.70;3.77;;;;;;;;;;5032022;28;20490;-47
2021/09/30 05:40:26;;;;;;;9.17;3.33;;;;;;;;;;5017372;28;20417;-48
2021/09/30 05:42:53;;;;;;;8.73;3.73;;;;;;;;;;5011467;28;20427;-48
2021/09/30 05:45:20;;;;;;;13.13;5.80;;;;;;;;;;5011783;28;20495;-48
2021/09/30 05:47:46;;;;;;;4.57;3.90;;;;;;;;;;5011791;28;20772;-49
2021/09/30 05:50:13;;;;;;;12.73;3.77;;;;;;;;;;5011790;28;20935;-49
2021/09/30 05:52:39;;;;;;;8.87;4.60;;;;;;;;;;5011416;28;20424;-48
2021/09/30 05:55:06;;;;;;;10.53;4.57;;;;;;;;;;5011738;28;20416;-48
2021/09/30 05:57:32;;;;;;;7.53;3.93;;;;;;;;;;5011657;28;20461;-49
2021/09/30 06:00:20;;;;;;;6.87;3.57;;;;;;;;;;5012496;28;20423;-48
2021/09/30 06:16:14;;;;;;;11.70;4.13;;;;;;;;;;5014378;28;20435;-48
2021/09/30 06:18:39;;;;;;;6.83;3.80;;;;;;;;;;5014187;28;20461;-48
2021/09/30 06:21:05;;;;;;;6.77;3.90;;;;;;;;;;5014172;28;20919;-47
2021/09/30 06:23:31;;;;;;;5.27;3.30;;;;;;;;;;5013850;28;20807;-47
2021/09/30 06:25:57;;;;;;;5.80;3.30;;;;;;;;;;5033199;28;20490;-51
2021/09/30 06:28:23;;;;;;;13.93;3.93;;;;;;;;;;5033117;28;20870;-49
2021/09/30 06:30:51;;;;;;;3.13;2.67;;;;;;;;;;5033749;28;20795;-51
2021/09/30 06:33:17;;;;;;;9.13;3.63;;;;;;;;;;5032502;28;20430;-49
2021/09/30 06:35:43;;;;;;;7.57;4.00;;;;;;;;;;5033864;28;20414;-48
2021/09/30 06:38:09;;;;;;;8.53;3.80;;;;;;;;;;5033863;28;20454;-49
2021/09/30 06:40:35;;;;;;;7.73;3.53;;;;;;;;;;5033868;28;20883;-47
2021/09/30 06:43:01;;;;;;;9.97;3.47;;;;;;;;;;5033071;28;20418;-48
2021/09/30 06:45:27;;;;;;;4.67;2.43;;;;;;;;;;5032801;28;20420;-49
2021/09/30 06:47:53;;;;;;;7.77;3.00;;;;;;;;;;5033862;28;20468;-48
2021/09/30 06:50:19;;;;;;;4.70;2.53;;;;;;;;;;5034325;28;20455;-48
2021/09/30 06:52:45;;;;;;;2.90;2.33;;;;;;;;;;5032050;28;20433;-50
2021/09/30 06:55:12;;;;;;;7.30;3.50;;;;;;;;;;5016020;28;20462;-50
2021/09/30 06:57:38;;;;;;;5.33;2.60;;;;;;;;;;5012450;28;20457;-48
2021/09/30 07:00:09;;;;;;;5.10;2.73;;;;;;;;;;5013273;28;20402;-48
2021/09/30 07:02:37;;;;;;;2.93;2.70;;;;;;;;;;5014052;28;20419;-51
2021/09/30 07:05:04;;;;;;;5.03;2.50;;;;;;;;;;5014223;28;20468;-49
2021/09/30 07:07:30;;;;;;;7.50;3.13;;;;;;;;;;5014192;28;20894;-51
2021/09/30 07:09:56;;;;;;;4.70;2.63;;;;;;;;;;5014187;28;20787;-51
2021/09/30 07:12:22;;;;;;;5.87;2.67;;;;;;;;;;5013806;28;20873;-48
2021/09/30 07:14:48;;;;;;;4.70;2.70;;;;;;;;;;5013822;28;20934;-50
2021/09/30 07:17:14;;;;;;;4.90;2.20;;;;;;;;;;5014014;28;20498;-48
2021/09/30 07:19:40;;;;;;;3.67;2.40;;;;;;;;;;5014023;28;20483;-50
2021/09/30 07:22:07;;;;;;;9.40;2.63;;;;;;;;;;5013175;28;20409;-52
2021/09/30 07:24:36;;;;;;;3.93;2.40;;;;;;;;;;5018274;28;20470;-49
2021/09/30 07:27:02;;;;;;;6.57;3.27;;;;;;;;;;5033661;28;20413;-50
2021/09/30 07:29:28;;;;;;;6.00;2.77;;;;;;;;;;5033725;28;20403;-49
2021/09/30 07:31:54;;;;;;;4.20;2.80;;;;;;;;;;5033298;28;20406;-50
2021/09/30 07:34:20;;;;;;;4.60;2.60;;;;;;;;;;5030397;28;20432;-51
2021/09/30 07:36:47;;;;;;;4.27;1.73;;;;;;;;;;5033229;28;20771;-50
2021/09/30 07:39:16;;;;;;;3.93;2.20;;;;;;;;;;5033294;28;20453;-49
2021/09/30 07:41:42;;;;;;;8.97;2.60;;;;;;;;;;5031813;28;20782;-50
2021/09/30 07:44:08;;;;;;;6.57;2.60;;;;;;;;;;5040601;28;20491;-51
2021/09/30 07:46:34;;;;;;;4.33;2.77;;;;;;;;;;5037781;28;20414;-49
2021/09/30 07:49:03;;;;;;;2.50;2.30;;;;;;;;;;5030747;28;21003;-49
2021/09/30 07:51:29;;;;;;;5.00;2.80;;;;;;;;;;5031049;28;20424;-49
2021/09/30 07:53:55;;;;;;;6.63;2.90;;;;;;;;;;5029793;28;20449;-51
2021/09/30 07:56:22;;;;;;;4.73;2.43;;;;;;;;;;5033054;28;20384;-50
2021/09/30 07:58:48;;;;;;;7.83;3.00;;;;;;;;;;5031747;28;20453;-48
2021/09/30 08:01:14;;;;;;;7.10;2.73;;;;;;;;;;5031390;28;20795;-50
2021/09/30 08:03:40;;;;;;;5.37;2.37;;;;;;;;;;5032461;28;20947;-49
2021/09/30 08:06:06;;;;;;;5.93;2.00;;;;;;;;;;5023258;28;20435;-48
2021/09/30 08:08:33;;;;;;;8.13;2.40;;;;;;;;;;5026129;28;20439;-50
2021/09/30 08:10:59;;;;;;;9.57;2.40;;;;;;;;;;5022477;28;20425;-49
2021/09/30 08:13:26;;;;;;;4.17;2.60;;;;;;;;;;5030310;28;20501;-50
2021/09/30 08:15:52;;;;;;;3.27;2.20;;;;;;;;;;5031847;28;20852;-51
2021/09/30 08:18:18;;;;;;;7.20;2.63;;;;;;;;;;5032144;28;20955;-51
2021/09/30 08:20:44;;;;;;;10.77;2.80;;;;;;;;;;5031915;28;20412;-49
2021/09/30 08:23:13;;;;;;;8.17;2.30;;;;;;;;;;5031213;28;20548;-48
2021/09/30 08:25:40;;;;;;;5.90;2.77;;;;;;;;;;5012831;28;20864;-51
2021/09/30 08:28:06;;;;;;;11.23;2.80;;;;;;;;;;5012687;28;20833;-50
2021/09/30 08:30:32;;;;;;;9.53;2.77;;;;;;;;;;5027263;28;20414;-50
2021/09/30 08:32:59;;;;;;;6.30;3.10;;;;;;;;;;5052124;28;20422;-51
2021/09/30 08:35:25;;;;;;;4.97;2.53;;;;;;;;;;5051631;28;20399;-49
2021/09/30 08:37:51;;;;;;;8.43;2.50;;;;;;;;;;5051629;28;20490;-49
2021/09/30 08:40:17;;;;;;;7.00;2.60;;;;;;;;;;5052045;28;20374;-51
2021/09/30 08:42:44;;;;;;;6.30;2.57;;;;;;;;;;5051469;28;20922;-51
2021/09/30 08:45:11;;;;;;;4.47;2.47;;;;;;;;;;5017556;28;20425;-50
2021/09/30 08:47:37;;;;;;;6.20;2.43;;;;;;;;;;5031852;28;20520;-52
2021/09/30 08:50:04;;;;;;;9.10;2.63;;;;;;;;;;5031740;28;20448;-50
2021/09/30 08:52:30;;;;;;;7.47;2.27;;;;;;;;;;5031505;28;20424;-49
2021/09/30 08:54:56;;;;;;;10.73;2.00;;;;;;;;;;5021798;28;20418;-49
2021/09/30 08:57:23;;;;;;;3.83;2.40;;;;;;;;;;5011403;28;20425;-51
2021/09/30 09:00:10;;;;;;;4.43;1.93;;;;;;;;;;5010675;28;20417;-49
2021/09/30 09:02:41;;;;;;;4.33;1.90;;;;;;;;;;5010429;28;20469;-50
2021/09/30 09:05:07;;;;;;;4.70;2.23;;;;;;;;;;5024095;28;20409;-51
2021/09/30 09:07:33;;;;;;;8.57;2.30;;;;;;;;;;5043076;28;20920;-51
2021/09/30 09:10:01;;;;;;;4.00;1.77;;;;;;;;;;5051230;28;20405;-52
2021/09/30 09:12:31;;;;;;;4.20;2.10;;;;;;;;;;5049853;28;20429;-51
2021/09/30 09:14:58;;;;;;;8.63;1.90;;;;;;;;;;5051549;28;20421;-51
2021/09/30 09:17:24;;;;;;;7.90;1.80;;;;;;;;;;5051729;28;20530;-50
2021/09/30 09:19:50;;;;;;;8.20;1.87;;;;;;;;;;5051987;28;20411;-51
2021/09/30 09:22:17;;;;;;;3.63;1.70;;;;;;;;;;5051364;28;20481;-51
2021/09/30 09:25:04;;;;;;;6.30;2.00;;;;;;;;;;5035812;28;20516;-52
2021/09/30 09:27:45;;;;;;;3.63;1.90;;;;;;;;;;5030156;28;20416;-50
2021/09/30 09:30:32;;;;;;;8.83;2.60;;;;;;;;;;5031636;28;20368;-48
2021/09/30 09:33:10;;;;;;;6.30;1.90;;;;;;;;;;5031393;28;20503;-52
2021/09/30 09:35:45;;;;;;;8.23;2.13;;;;;;;;;;5029898;28;20403;-50
2021/09/30 09:38:12;;;;;;;4.17;2.10;;;;;;;;;;5031378;28;20463;-49
2021/09/30 09:40:39;;;;;;;2.60;1.57;;;;;;;;;;5031672;28;20447;-51
2021/09/30 09:43:24;;;;;;;3.93;1.80;;;;;;;;;;5031240;28;20425;-52
2021/09/30 09:45:49;;;;;;;7.73;2.40;;;;;;;;;;5032432;28;20404;-51
2021/09/30 09:48:15;;;;;;;5.03;1.57;;;;;;;;;;5035496;28;20406;-51
2021/09/30 09:50:41;;;;;;;3.60;1.60;;;;;;;;;;5035446;28;20485;-52
2021/09/30 09:53:07;;;;;;;8.20;1.83;;;;;;;;;;5033086;28;20835;-52
2021/09/30 09:55:33;;;;;;;6.83;1.77;;;;;;;;;;5034499;28;20925;-50
2021/09/30 09:58:11;;;;;;;7.37;2.30;;;;;;;;;;5035299;28;20496;-51
2021/09/30 10:00:42;;;;;;;5.27;1.70;;;;;;;;;;5035280;28;20440;-50
2021/09/30 10:03:13;;;;;;;4.97;1.70;;;;;;;;;;5034862;28;20518;-50
2021/09/30 10:05:40;;;;;;;8.23;1.90;;;;;;;;;;5035250;28;20461;-51
2021/09/30 10:08:07;;;;;;;5.40;2.20;;;;;;;;;;5033942;28;20411;-51
2021/09/30 10:10:33;;;;;;;10.07;2.30;;;;;;;;;;5034874;28;20409;-51
2021/09/30 10:12:59;;;;;;;6.77;2.37;;;;;;;;;;5034580;28;21016;-52
2021/09/30 10:15:25;;;;;;;6.13;1.80;;;;;;;;;;5034773;28;20418;-51
2021/09/30 10:17:52;;;;;;;3.23;2.03;;;;;;;;;;5034729;28;20937;-52
2021/09/30 10:20:18;;;;;;;3.13;1.93;;;;;;;;;;5035045;28;20383;-51
2021/09/30 10:22:50;;;;;;;10.40;2.10;;;;;;;;;;5034489;28;20432;-51
2021/09/30 10:25:16;;;;;;;2.80;1.70;;;;;;;;;;5034784;28;20430;-52
2021/09/30 10:27:43;;;;;;;4.37;2.03;;;;;;;;;;5034535;28;20377;-48
2021/09/30 10:30:29;;;;;;;6.23;2.57;;;;;;;;;;5033384;28;20495;-49
2021/09/30 10:32:55;;;;;;;4.90;2.00;;;;;;;;;;5032998;28;20426;-50
2021/09/30 10:35:30;;;;;;;6.63;1.90;;;;;;;;;;5034613;28;20380;-48
2021/09/30 10:38:22;;;;;;;4.20;2.00;;;;;;;;;;5034590;28;20518;-52
2021/09/30 10:41:09;;;;;;;5.20;2.00;;;;;;;;;;5034186;28;20515;-47
2021/09/30 10:43:41;;;;;;;10.10;2.07;;;;;;;;;;5034257;28;20933;-50
2021/09/30 10:46:08;;;;;;;4.20;2.07;;;;;;;;;;5034520;28;20367;-52
2021/09/30 10:48:34;;;;;;;2.80;1.87;;;;;;;;;;5034354;28;20502;-50
2021/09/30 10:51:13;;;;;;;8.80;2.10;;;;;;;;;;5034781;28;20812;-49
2021/09/30 10:53:48;;;;;;;8.23;2.50;;;;;;;;;;5033174;28;20390;-47
2021/09/30 10:56:41;;;;;;;4.67;2.10;;;;;;;;;;5014183;28;20401;-52
2021/09/30 10:59:07;;;;;;;6.13;2.00;;;;;;;;;;5014503;28;20895;-51
2021/09/30 11:01:33;;;;;;;2.23;1.40;;;;;;;;;;5012571;28;20741;-49
2021/09/30 11:04:04;;;;;;;3.83;2.13;;;;;;;;;;5012129;28;20433;-51
2021/09/30 11:06:30;;;;;;;3.20;1.50;;;;;;;;;;5013033;28;20412;-50
2021/09/30 11:09:14;;;;;;;3.70;1.90;;;;;;;;;;5014616;28;20415;-46
2021/09/30 11:11:41;;;;;;;2.80;1.40;;;;;;;;;;5013831;28;20410;-47
2021/09/30 11:14:07;;;;;;;5.07;1.87;;;;;;;;;;5013923;28;20417;-46
2021/09/30 11:16:36;;;;;;;2.43;1.60;;;;;;;;;;5030355;28;20461;-46
2021/09/30 11:19:03;;;;;;;3.70;1.40;;;;;;;;;;5033524;28;20544;-47
2021/09/30 11:21:32;;;;;;;3.30;2.00;;;;;;;;;;5033740;28;20408;-47
2021/09/30 11:24:02;;;;;;;8.93;2.90;;;;;;;;;;5033403;28;20984;-46
2021/09/30 11:26:32;;;;;;;7.13;1.73;;;;;;;;;;5033324;28;20407;-49
2021/09/30 11:29:18;;;;;;;6.50;1.83;;;;;;;;;;5032565;28;20883;-46
2021/09/30 11:31:44;;;;;;;6.40;1.80;;;;;;;;;;5032940;28;20414;-46
2021/09/30 11:34:17;;;;;;;4.47;1.60;;;;;;;;;;5032800;28;20786;-48
2021/09/30 11:36:43;;;;;;;4.00;1.60;;;;;;;;;;5032928;28;20468;-46
2021/09/30 11:39:09;;;;;;;3.97;1.67;;;;;;;;;;5032890;28;20461;-46
2021/09/30 11:41:38;;;;;;;4.73;1.63;;;;;;;;;;5031451;28;20955;-46
2021/09/30 11:44:04;;;;;;;1.80;1.60;;;;;;;;;;5031392;28;20479;-49
2021/09/30 11:46:35;;;;;;;3.57;1.23;;;;;;;;;;5033354;28;20406;-48
2021/09/30 11:49:06;;;;;;;6.23;1.53;;;;;;;;;;5033163;28;20467;-46
2021/09/30 11:51:51;;;;;;;3.37;1.53;;;;;;;;;;5033096;28;20417;-46
2021/09/30 11:54:18;;;;;;;5.90;1.77;;;;;;;;;;5033017;28;20427;-46
2021/09/30 11:56:52;;;;;;;3.00;1.40;;;;;;;;;;5033121;28;20763;-46
2021/09/30 11:59:18;;;;;;;2.40;1.40;;;;;;;;;;5033062;28;20488;-46
2021/09/30 12:01:48;;;;;;;5.30;1.77;;;;;;;;;;5032745;28;21451;-52
2021/09/30 12:04:27;;;;;;;2.20;1.40;;;;;;;;;;5032881;28;20425;-47
2021/09/30 12:06:54;;;;;;;5.30;1.77;;;;;;;;;;5032990;28;20403;-48
2021/09/30 12:09:20;;;;;;;4.13;1.70;;;;;;;;;;5032280;28;20912;-46
2021/09/30 12:11:54;;;;;;;2.00;1.77;;;;;;;;;;5030767;28;21027;-46
2021/09/30 12:14:21;;;;;;;2.90;1.33;;;;;;;;;;5032617;28;20430;-46
2021/09/30 12:16:58;;;;;;;2.87;1.57;;;;;;;;;;5032716;28;20905;-46
2021/09/30 12:19:34;;;;;;;5.67;1.93;;;;;;;;;;5032618;28;20458;-46
2021/09/30 12:22:00;;;;;;;3.70;1.80;;;;;;;;;;5032391;28;20500;-46
2021/09/30 12:24:30;;;;;;;4.53;1.57;;;;;;;;;;5032387;28;20420;-45
2021/09/30 12:26:56;;;;;;;9.13;2.03;;;;;;;;;;5032587;28;20420;-46
2021/09/30 12:29:22;;;;;;;2.50;1.30;;;;;;;;;;5032543;28;20417;-47
2021/09/30 12:32:05;;;;;;;3.23;1.00;;;;;;;;;;5032156;28;20410;-46
2021/09/30 12:34:31;;;;;;;4.70;1.77;;;;;;;;;;5032528;28;20505;-46
2021/09/30 12:36:57;;;;;;;3.30;1.50;;;;;;;;;;5032331;28;20438;-47
2021/09/30 12:39:26;;;;;;;3.53;1.67;;;;;;;;;;5031322;28;20465;-50
2021/09/30 12:41:52;;;;;;;4.00;1.30;;;;;;;;;;5031672;28;20424;-49
2021/09/30 12:44:19;;;;;;;6.17;1.47;;;;;;;;;;5031021;28;20540;-48
2021/09/30 12:46:47;;;;;;;8.90;1.53;;;;;;;;;;5032360;28;20485;-49
2021/09/30 12:49:14;;;;;;;5.60;1.73;;;;;;;;;;5032171;28;20404;-46
2021/09/30 12:51:40;;;;;;;1.83;1.57;;;;;;;;;;5031922;28;20406;-46
2021/09/30 12:54:06;;;;;;;4.20;1.63;;;;;;;;;;5031904;28;21004;-46
2021/09/30 12:56:33;;;;;;;4.70;1.70;;;;;;;;;;5032163;28;20489;-47
2021/09/30 12:59:14;;;;;;;5.93;1.97;;;;;;;;;;5031968;28;20956;-46
2021/09/30 13:01:44;;;;;;;5.47;1.57;;;;;;;;;;5031917;28;20406;-46
2021/09/30 13:04:12;;;;;;;3.23;1.30;;;;;;;;;;5031618;28;20417;-47
2021/09/30 13:06:59;;;;;;;3.10;1.40;;;;;;;;;;5031954;28;20454;-48
2021/09/30 13:09:29;;;;;;;3.53;1.43;;;;;;;;;;5032080;28;20408;-46
2021/09/30 13:12:02;;;;;;;1.43;1.20;;;;;;;;;;5031670;28;20443;-46
2021/09/30 13:14:29;;;;;;;3.10;1.40;;;;;;;;;;5029696;28;20452;-46
2021/09/30 13:17:15;;;;;;;3.17;1.70;;;;;;;;;;5031856;28;20839;-46
2021/09/30 13:19:57;;;;;;;4.93;1.53;;;;;;;;;;5031887;28;20770;-47
2021/09/30 13:22:25;;;;;;;3.10;1.50;;;;;;;;;;5035675;28;20457;-46
2021/09/30 13:24:52;;;;;;;6.23;2.03;;;;;;;;;;5035898;28;20414;-49
2021/09/30 13:27:20;;;;;;;1.67;1.30;;;;;;;;;;5035936;28;20374;-47
2021/09/30 13:29:47;;;;;;;1.87;1.77;;;;;;;;;;5036042;28;20400;-46
2021/09/30 13:32:14;;;;;;;4.47;1.80;;;;;;;;;;5035542;28;20458;-47
2021/09/30 13:34:40;;;;;;;1.97;1.43;;;;;;;;;;5035852;28;20403;-50
2021/09/30 13:37:06;;;;;;;6.20;1.33;;;;;;;;;;5035704;28;20449;-50
2021/09/30 13:39:32;;;;;;;3.53;1.70;;;;;;;;;;5035582;28;20453;-50
2021/09/30 13:41:58;;;;;;;3.00;1.87;;;;;;;;;;5035431;28;20459;-46
2021/09/30 13:44:24;;;;;;;2.73;1.23;;;;;;;;;;5034170;28;20451;-46
2021/09/30 13:46:50;;;;;;;4.90;1.60;;;;;;;;;;5034378;28;20505;-48
2021/09/30 13:49:16;;;;;;;5.77;1.30;;;;;;;;;;5035589;28;21052;-46
2021/09/30 13:51:42;;;;;;;5.90;1.53;;;;;;;;;;5035278;28;20397;-47
2021/09/30 13:54:09;;;;;;;5.23;1.60;;;;;;;;;;5035197;28;20941;-47
2021/09/30 13:56:35;;;;;;;3.77;1.20;;;;;;;;;;5035476;28;20405;-46
2021/09/30 13:59:01;;;;;;;2.33;1.03;;;;;;;;;;5035164;28;20552;-46
2021/09/30 14:01:27;;;;;;;4.60;1.50;;;;;;;;;;5035205;28;20402;-46
2021/09/30 14:03:54;;;;;;;5.90;1.50;;;;;;;;;;5034932;28;20435;-47
2021/09/30 14:06:20;;;;;;;7.63;1.50;;;;;;;;;;5033719;28;20402;-45
2021/09/30 14:08:46;;;;;;;1.97;1.20;;;;;;;;;;5035069;28;20400;-45
2021/09/30 14:11:14;;;;;;;2.57;1.57;;;;;;;;;;5035088;28;20413;-45
2021/09/30 14:13:43;;;;;;;6.33;1.73;;;;;;;;;;5032963;28;20440;-46
2021/09/30 14:16:09;;;;;;;5.70;1.60;;;;;;;;;;5034175;28;20965;-48
2021/09/30 14:18:35;;;;;;;3.53;1.47;;;;;;;;;;5034954;28;20560;-49
2021/09/30 14:21:01;;;;;;;1.87;1.53;;;;;;;;;;5034810;28;20898;-49
2021/09/30 14:23:27;;;;;;;4.23;1.40;;;;;;;;;;5033770;28;20492;-49
2021/09/30 14:25:53;;;;;;;3.83;1.40;;;;;;;;;;5034847;28;20400;-46
2021/09/30 14:28:20;;;;;;;4.20;1.37;;;;;;;;;;5034791;28;20383;-45
2021/09/30 14:30:46;;;;;;;2.23;1.30;;;;;;;;;;5034833;28;20454;-48
2021/09/30 14:33:12;;;;;;;5.33;1.80;;;;;;;;;;5033764;28;20406;-46
2021/09/30 14:35:38;;;;;;;4.47;1.43;;;;;;;;;;5034708;28;20467;-49
2021/09/30 14:38:05;;;;;;;1.50;1.27;;;;;;;;;;5034537;28;20781;-48
2021/09/30 14:40:32;;;;;;;2.73;1.50;;;;;;;;;;5034659;28;20471;-46
2021/09/30 14:42:58;;;;;;;2.07;1.40;;;;;;;;;;5034338;28;20416;-46
2021/09/30 14:45:24;;;;;;;3.30;1.47;;;;;;;;;;5032742;28;20438;-46
2021/09/30 14:47:50;;;;;;;1.97;1.33;;;;;;;;;;5033625;28;20796;-46
2021/09/30 14:50:16;;;;;;;3.27;1.80;;;;;;;;;;5020744;28;20821;-46
2021/09/30 14:52:42;;;;;;;3.67;1.67;;;;;;;;;;5024376;28;21060;-46
2021/09/30 14:55:08;;;;;;;8.43;1.87;;;;;;;;;;5023198;28;20409;-46
2021/09/30 14:57:34;;;;;;;5.33;1.77;;;;;;;;;;5034339;28;20461;-46
2021/09/30 15:00:01;;;;;;;6.87;2.00;;;;;;;;;;5034302;28;20409;-46
2021/09/30 15:02:27;;;;;;;3.50;1.43;;;;;;;;;;5033911;28;20934;-46
2021/09/30 15:04:54;;;;;;;4.87;2.27;;;;;;;;;;5031387;28;20750;-45
2021/09/30 15:07:25;;;;;;;5.20;1.60;;;;;;;;;;5019465;28;20432;-45
2021/09/30 15:09:52;;;;;;;7.83;1.77;;;;;;;;;;5027562;28;20378;-47
2021/09/30 15:12:18;;;;;;;3.43;1.67;;;;;;;;;;5033742;28;20407;-46
2021/09/30 15:14:44;;;;;;;6.93;1.83;;;;;;;;;;5030972;28;20367;-46
2021/09/30 15:17:13;;;;;;;3.53;1.60;;;;;;;;;;5033823;28;20450;-45
2021/09/30 15:19:51;;;;;;;5.47;1.70;;;;;;;;;;5033541;28;20415;-47
2021/09/30 15:22:17;;;;;;;4.57;1.60;;;;;;;;;;5032182;28;20809;-45
2021/09/30 15:24:43;;;;;;;7.23;1.97;;;;;;;;;;5025601;28;20408;-46
2021/09/30 15:27:09;;;;;;;4.90;1.80;;;;;;;;;;5015349;28;20453;-46
2021/09/30 15:29:36;;;;;;;5.70;1.93;;;;;;;;;;5012076;28;21008;-46
2021/09/30 15:32:02;;;;;;;3.93;1.30;;;;;;;;;;5011612;28;20428;-45
2021/09/30 15:34:30;;;;;;;3.67;1.77;;;;;;;;;;5020914;28;20447;-45
2021/09/30 15:36:56;;;;;;;2.80;1.40;;;;;;;;;;5031978;28;20388;-45
2021/09/30 15:39:22;;;;;;;2.33;2.00;;;;;;;;;;5031678;28;20454;-45
2021/09/30 15:41:49;;;;;;;5.20;1.97;;;;;;;;;;5030794;28;20400;-45
2021/09/30 15:44:18;;;;;;;6.00;1.90;;;;;;;;;;5030928;28;20462;-45
2021/09/30 15:46:44;;;;;;;3.37;1.53;;;;;;;;;;5032624;28;20923;-45
2021/09/30 15:49:10;;;;;;;7.67;2.30;;;;;;;;;;5033246;28;20396;-45
2021/09/30 15:51:36;;;;;;;5.03;1.97;;;;;;;;;;5033101;28;20417;-45
2021/09/30 15:54:02;;;;;;;4.57;1.30;;;;;;;;;;5031805;28;20429;-46
2021/09/30 15:56:28;;;;;;;4.77;1.87;;;;;;;;;;5022236;28;20412;-48
2021/09/30 15:58:54;;;;;;;5.27;1.67;;;;;;;;;;5032246;28;20461;-48
2021/09/30 16:01:20;;;;;;;1.67;1.57;;;;;;;;;;5032901;28;20784;-46
2021/09/30 16:03:46;;;;;;;7.10;1.77;;;;;;;;;;5032556;28;21028;-47
2021/09/30 16:06:12;;;;;;;5.97;1.80;;;;;;;;;;5032850;28;20413;-48
2021/09/30 16:08:40;;;;;;;2.73;1.43;;;;;;;;;;5032850;28;20398;-44
2021/09/30 16:11:08;;;;;;;2.43;1.50;;;;;;;;;;5032462;28;20403;-47
2021/09/30 16:13:34;;;;;;;5.53;1.60;;;;;;;;;;5032196;28;20397;-46
2021/09/30 16:16:00;;;;;;;7.30;1.83;;;;;;;;;;5032577;28;20447;-45
2021/09/30 16:18:26;;;;;;;3.67;1.73;;;;;;;;;;5022428;28;20466;-45
2021/09/30 16:20:52;;;;;;;9.87;2.47;;;;;;;;;;5013498;28;20430;-46
2021/09/30 16:23:18;;;;;;;1.77;1.67;;;;;;;;;;5011843;28;20425;-45
2021/09/30 16:25:45;;;;;;;3.73;1.67;;;;;;;;;;5013002;28;20481;-46
2021/09/30 16:28:11;;;;;;;1.93;1.53;;;;;;;;;;5022380;28;20411;-45
2021/09/30 16:30:37;;;;;;;7.33;1.80;;;;;;;;;;5023650;28;20441;-46
2021/09/30 16:33:04;;;;;;;3.73;1.60;;;;;;;;;;5018284;28;20397;-49
2021/09/30 16:35:30;;;;;;;3.20;1.70;;;;;;;;;;5028814;28;20505;-45
2021/09/30 16:37:57;;;;;;;4.97;1.77;;;;;;;;;;5024426;28;20523;-45
2021/09/30 16:40:23;;;;;;;1.33;1.20;;;;;;;;;;5012576;28;20431;-47
2021/09/30 16:42:49;;;;;;;8.17;1.73;;;;;;;;;;5012184;28;20426;-46
2021/09/30 16:45:16;;;;;;;3.43;1.43;;;;;;;;;;5024960;28;20428;-46
2021/09/30 16:47:42;;;;;;;4.47;2.00;;;;;;;;;;5032243;28;20448;-46
2021/09/30 16:50:14;;;;;;;7.27;2.00;;;;;;;;;;5032178;28;20398;-45
2021/09/30 16:52:43;;;;;;;5.03;1.53;;;;;;;;;;5031855;28;20408;-47
2021/09/30 16:55:09;;;;;;;5.27;1.97;;;;;;;;;;5031962;28;20410;-45
2021/09/30 16:57:41;;;;;;;1.83;1.73;;;;;;;;;;5032004;28;20414;-46
2021/09/30 17:00:08;;;;;;;6.97;1.80;;;;;;;;;;5031277;28;20886;-46
2021/09/30 17:02:34;;;;;;;3.90;1.63;;;;;;;;;;5012949;28;20461;-49
2021/09/30 17:05:01;;;;;;;4.37;1.70;;;;;;;;;;5023036;28;21141;-45
2021/09/30 17:07:27;;;;;;;3.60;1.90;;;;;;;;;;5030846;28;20997;-48
2021/09/30 17:09:53;;;;;;;4.90;1.90;;;;;;;;;;5030430;28;20464;-45
2021/09/30 17:12:19;;;;;;;4.40;1.90;;;;;;;;;;5030808;28;20451;-45
2021/09/30 17:14:45;;;;;;;4.33;2.53;;;;;;;;;;5031218;28;20405;-45
2021/09/30 17:17:11;;;;;;;5.63;2.30;;;;;;;;;;5031133;28;20395;-53
2021/09/30 17:19:37;;;;;;;5.70;2.47;;;;;;;;;;5031213;28;20453;-46
2021/09/30 17:22:03;;;;;;;4.27;2.40;;;;;;;;;;5030880;28;20412;-50
2021/09/30 17:24:30;;;;;;;5.30;2.57;;;;;;;;;;5030290;28;20490;-51
2021/09/30 17:26:57;;;;;;;3.53;2.57;;;;;;;;;;5032025;28;20393;-51
2021/09/30 17:29:25;;;;;;;5.90;2.27;;;;;;;;;;5029365;28;20822;-47
2021/09/30 17:31:52;;;;;;;9.30;1.90;;;;;;;;;;5029359;28;20492;-47
2021/09/30 17:34:17;;;;;;;2.20;2.00;;;;;;;;;;5031549;28;20467;-46